sensor_id;sensor_type;location;lat;lon;timestamp;P1;durP1;ratioP1;P2;durP2;ratioP2
75459;SDS011;64039;53.060;9.342;2024-01-07T00:00:47;5.28;;;3.00;;
75459;SDS011;64039;53.060;9.342;2024-01-07T00:03:13;5.38;;;3.00;;
75459;SDS011;64039;53.060;9.342;2024-01-07T00:05:39;7.15;;;3.28;;
75459;SDS011;64039;53.060;9.342;2024-01-07T00:08:08;5.55;;;3.30;;
75459;SDS011;64039;53.060;9.342;2024-01-07T00:10:34;8.80;;;3.30;;
75459;SDS011;64039;53.060;9.342;2024-01-07T00:13:00;7.63;;;3.85;;
75459;SDS011;64039;53.060;9.342;2024-01-07T00:15:26;7.53;;;3.55;;
75459;SDS011;64039;53.060;9.342;2024-01-07T00:17:52;6.50;;;3.30;;
75459;SDS011;64039;53.060;9.342;2024-01-07T00:20:18;5.75;;;3.38;;
75459;SDS011;64039;53.060;9.342;2024-01-07T00:22:44;9.18;;;3.22;;
75459;SDS011;64039;53.060;9.342;2024-01-07T00:25:10;6.25;;;3.33;;
75459;SDS011;64039;53.060;9.342;2024-01-07T00:27:36;5.57;;;3.13;;
75459;SDS011;64039;53.060;9.342;2024-01-07T00:30:01;5.90;;;3.30;;
75459;SDS011;64039;53.060;9.342;2024-01-07T00:32:28;8.57;;;3.95;;
75459;SDS011;64039;53.060;9.342;2024-01-07T00:34:54;8.10;;;4.00;;
75459;SDS011;64039;53.060;9.342;2024-01-07T00:37:19;6.68;;;3.45;;
75459;SDS011;64039;53.060;9.342;2024-01-07T00:39:45;6.50;;;3.55;;
75459;SDS011;64039;53.060;9.342;2024-01-07T00:42:11;6.97;;;3.78;;
75459;SDS011;64039;53.060;9.342;2024-01-07T00:44:37;7.72;;;3.72;;
75459;SDS011;64039;53.060;9.342;2024-01-07T00:47:02;6.70;;;3.70;;
75459;SDS011;64039;53.060;9.342;2024-01-07T00:49:28;6.50;;;3.63;;
75459;SDS011;64039;53.060;9.342;2024-01-07T00:51:53;8.65;;;3.58;;
75459;SDS011;64039;53.060;9.342;2024-01-07T00:54:19;6.72;;;3.40;;
75459;SDS011;64039;53.060;9.342;2024-01-07T00:56:45;6.15;;;3.33;;
75459;SDS011;64039;53.060;9.342;2024-01-07T00:59:10;8.50;;;3.45;;
75459;SDS011;64039;53.060;9.342;2024-01-07T01:01:36;6.93;;;3.30;;
75459;SDS011;64039;53.060;9.342;2024-01-07T01:04:01;7.97;;;3.70;;
75459;SDS011;64039;53.060;9.342;2024-01-07T01:06:27;8.50;;;3.42;;
75459;SDS011;64039;53.060;9.342;2024-01-07T01:08:52;6.55;;;3.65;;
75459;SDS011;64039;53.060;9.342;2024-01-07T01:11:17;5.70;;;3.40;;
75459;SDS011;64039;53.060;9.342;2024-01-07T01:13:43;6.05;;;3.60;;
75459;SDS011;64039;53.060;9.342;2024-01-07T01:16:08;8.40;;;3.85;;
75459;SDS011;64039;53.060;9.342;2024-01-07T01:18:34;7.30;;;4.13;;
75459;SDS011;64039;53.060;9.342;2024-01-07T01:20:59;6.63;;;3.90;;
75459;SDS011;64039;53.060;9.342;2024-01-07T01:23:24;7.70;;;3.72;;
75459;SDS011;64039;53.060;9.342;2024-01-07T01:25:50;8.40;;;4.00;;
75459;SDS011;64039;53.060;9.342;2024-01-07T01:28:15;8.27;;;3.83;;
75459;SDS011;64039;53.060;9.342;2024-01-07T01:30:41;11.63;;;4.72;;
75459;SDS011;64039;53.060;9.342;2024-01-07T01:33:07;7.10;;;3.90;;
75459;SDS011;64039;53.060;9.342;2024-01-07T01:35:32;5.22;;;3.13;;
75459;SDS011;64039;53.060;9.342;2024-01-07T01:37:58;4.88;;;3.03;;
75459;SDS011;64039;53.060;9.342;2024-01-07T01:40:23;6.38;;;3.17;;
75459;SDS011;64039;53.060;9.342;2024-01-07T01:42:49;7.18;;;3.15;;
75459;SDS011;64039;53.060;9.342;2024-01-07T01:45:14;6.03;;;3.28;;
75459;SDS011;64039;53.060;9.342;2024-01-07T01:47:40;6.50;;;3.60;;
75459;SDS011;64039;53.060;9.342;2024-01-07T01:50:06;5.97;;;3.05;;
75459;SDS011;64039;53.060;9.342;2024-01-07T01:52:32;5.78;;;3.25;;
75459;SDS011;64039;53.060;9.342;2024-01-07T01:54:58;5.78;;;2.92;;
75459;SDS011;64039;53.060;9.342;2024-01-07T01:57:25;4.82;;;2.63;;
75459;SDS011;64039;53.060;9.342;2024-01-07T01:59:57;5.30;;;3.08;;
75459;SDS011;64039;53.060;9.342;2024-01-07T02:02:27;5.88;;;2.80;;
75459;SDS011;64039;53.060;9.342;2024-01-07T02:04:54;4.68;;;2.70;;
75459;SDS011;64039;53.060;9.342;2024-01-07T02:07:19;5.30;;;2.65;;
75459;SDS011;64039;53.060;9.342;2024-01-07T02:09:44;9.45;;;2.90;;
75459;SDS011;64039;53.060;9.342;2024-01-07T02:12:10;4.80;;;2.70;;
75459;SDS011;64039;53.060;9.342;2024-01-07T02:14:37;6.10;;;2.75;;
75459;SDS011;64039;53.060;9.342;2024-01-07T02:17:03;4.78;;;2.72;;
75459;SDS011;64039;53.060;9.342;2024-01-07T02:19:28;5.50;;;2.40;;
75459;SDS011;64039;53.060;9.342;2024-01-07T02:21:54;3.42;;;1.88;;
75459;SDS011;64039;53.060;9.342;2024-01-07T02:24:20;6.00;;;2.47;;
75459;SDS011;64039;53.060;9.342;2024-01-07T02:26:45;3.97;;;2.20;;
75459;SDS011;64039;53.060;9.342;2024-01-07T02:29:10;4.65;;;2.17;;
75459;SDS011;64039;53.060;9.342;2024-01-07T02:31:36;4.55;;;2.20;;
75459;SDS011;64039;53.060;9.342;2024-01-07T02:34:01;3.72;;;2.10;;
75459;SDS011;64039;53.060;9.342;2024-01-07T02:36:27;3.45;;;2.10;;
75459;SDS011;64039;53.060;9.342;2024-01-07T02:38:52;3.85;;;1.92;;
75459;SDS011;64039;53.060;9.342;2024-01-07T02:41:17;7.45;;;2.10;;
75459;SDS011;64039;53.060;9.342;2024-01-07T02:43:45;3.90;;;2.17;;
75459;SDS011;64039;53.060;9.342;2024-01-07T02:46:10;7.07;;;3.22;;
75459;SDS011;64039;53.060;9.342;2024-01-07T02:48:36;3.97;;;1.83;;
75459;SDS011;64039;53.060;9.342;2024-01-07T02:51:01;4.30;;;1.98;;
75459;SDS011;64039;53.060;9.342;2024-01-07T02:53:28;3.95;;;1.83;;
75459;SDS011;64039;53.060;9.342;2024-01-07T02:55:54;5.80;;;2.42;;
75459;SDS011;64039;53.060;9.342;2024-01-07T02:58:19;3.95;;;1.92;;
75459;SDS011;64039;53.060;9.342;2024-01-07T03:00:45;2.97;;;1.60;;
75459;SDS011;64039;53.060;9.342;2024-01-07T03:03:10;2.67;;;1.40;;
75459;SDS011;64039;53.060;9.342;2024-01-07T03:05:35;3.85;;;1.88;;
75459;SDS011;64039;53.060;9.342;2024-01-07T03:08:01;5.82;;;2.25;;
75459;SDS011;64039;53.060;9.342;2024-01-07T03:10:26;3.92;;;2.15;;
75459;SDS011;64039;53.060;9.342;2024-01-07T03:12:51;3.97;;;2.05;;
75459;SDS011;64039;53.060;9.342;2024-01-07T03:15:17;3.20;;;1.70;;
75459;SDS011;64039;53.060;9.342;2024-01-07T03:17:42;3.17;;;1.90;;
75459;SDS011;64039;53.060;9.342;2024-01-07T03:20:09;5.97;;;2.10;;
75459;SDS011;64039;53.060;9.342;2024-01-07T03:22:35;3.25;;;1.70;;
75459;SDS011;64039;53.060;9.342;2024-01-07T03:25:00;4.15;;;2.13;;
75459;SDS011;64039;53.060;9.342;2024-01-07T03:27:26;4.68;;;2.38;;
75459;SDS011;64039;53.060;9.342;2024-01-07T03:29:51;5.03;;;2.35;;
75459;SDS011;64039;53.060;9.342;2024-01-07T03:32:17;4.60;;;2.00;;
75459;SDS011;64039;53.060;9.342;2024-01-07T03:34:43;6.13;;;2.03;;
75459;SDS011;64039;53.060;9.342;2024-01-07T03:37:08;3.22;;;1.90;;
75459;SDS011;64039;53.060;9.342;2024-01-07T03:39:33;3.88;;;1.83;;
75459;SDS011;64039;53.060;9.342;2024-01-07T03:41:59;3.88;;;1.90;;
75459;SDS011;64039;53.060;9.342;2024-01-07T03:44:25;3.08;;;1.70;;
75459;SDS011;64039;53.060;9.342;2024-01-07T03:46:50;5.10;;;1.98;;
75459;SDS011;64039;53.060;9.342;2024-01-07T03:49:16;4.30;;;1.70;;
75459;SDS011;64039;53.060;9.342;2024-01-07T03:51:43;3.95;;;1.52;;
75459;SDS011;64039;53.060;9.342;2024-01-07T03:54:09;5.93;;;2.20;;
75459;SDS011;64039;53.060;9.342;2024-01-07T03:56:34;4.50;;;1.92;;
75459;SDS011;64039;53.060;9.342;2024-01-07T03:59:00;3.88;;;1.80;;
75459;SDS011;64039;53.060;9.342;2024-01-07T04:01:25;3.20;;;1.90;;
75459;SDS011;64039;53.060;9.342;2024-01-07T04:03:50;4.55;;;2.10;;
75459;SDS011;64039;53.060;9.342;2024-01-07T04:06:16;3.17;;;1.70;;
75459;SDS011;64039;53.060;9.342;2024-01-07T04:08:41;3.53;;;2.00;;
75459;SDS011;64039;53.060;9.342;2024-01-07T04:11:07;6.78;;;2.20;;
75459;SDS011;64039;53.060;9.342;2024-01-07T04:13:32;4.50;;;2.00;;
75459;SDS011;64039;53.060;9.342;2024-01-07T04:15:57;4.40;;;1.60;;
75459;SDS011;64039;53.060;9.342;2024-01-07T04:18:23;5.10;;;1.83;;
75459;SDS011;64039;53.060;9.342;2024-01-07T04:20:48;3.80;;;1.83;;
75459;SDS011;64039;53.060;9.342;2024-01-07T04:23:14;3.45;;;1.80;;
75459;SDS011;64039;53.060;9.342;2024-01-07T04:25:39;3.25;;;1.63;;
75459;SDS011;64039;53.060;9.342;2024-01-07T04:28:06;4.30;;;2.05;;
75459;SDS011;64039;53.060;9.342;2024-01-07T04:30:31;3.03;;;1.60;;
75459;SDS011;64039;53.060;9.342;2024-01-07T04:32:57;3.72;;;1.83;;
75459;SDS011;64039;53.060;9.342;2024-01-07T04:35:22;4.55;;;1.95;;
75459;SDS011;64039;53.060;9.342;2024-01-07T04:37:47;4.05;;;1.80;;
75459;SDS011;64039;53.060;9.342;2024-01-07T04:40:13;6.63;;;1.65;;
75459;SDS011;64039;53.060;9.342;2024-01-07T04:42:39;2.97;;;1.70;;
75459;SDS011;64039;53.060;9.342;2024-01-07T04:45:04;4.43;;;1.80;;
75459;SDS011;64039;53.060;9.342;2024-01-07T04:47:31;3.15;;;1.30;;
75459;SDS011;64039;53.060;9.342;2024-01-07T04:49:59;3.50;;;1.75;;
75459;SDS011;64039;53.060;9.342;2024-01-07T04:52:24;3.55;;;1.73;;
75459;SDS011;64039;53.060;9.342;2024-01-07T04:54:51;2.70;;;1.67;;
75459;SDS011;64039;53.060;9.342;2024-01-07T04:57:17;4.40;;;1.60;;
75459;SDS011;64039;53.060;9.342;2024-01-07T04:59:42;4.45;;;1.48;;
75459;SDS011;64039;53.060;9.342;2024-01-07T05:02:08;3.67;;;1.55;;
75459;SDS011;64039;53.060;9.342;2024-01-07T05:04:34;2.67;;;1.60;;
75459;SDS011;64039;53.060;9.342;2024-01-07T05:07:00;3.35;;;1.30;;
75459;SDS011;64039;53.060;9.342;2024-01-07T05:09:26;3.78;;;1.40;;
75459;SDS011;64039;53.060;9.342;2024-01-07T05:11:51;1.77;;;1.20;;
75459;SDS011;64039;53.060;9.342;2024-01-07T05:14:17;2.75;;;1.30;;
75459;SDS011;64039;53.060;9.342;2024-01-07T05:16:42;3.28;;;1.33;;
75459;SDS011;64039;53.060;9.342;2024-01-07T05:19:07;3.38;;;1.25;;
75459;SDS011;64039;53.060;9.342;2024-01-07T05:21:33;2.85;;;1.30;;
75459;SDS011;64039;53.060;9.342;2024-01-07T05:23:58;2.30;;;1.40;;
75459;SDS011;64039;53.060;9.342;2024-01-07T05:26:24;3.88;;;1.23;;
75459;SDS011;64039;53.060;9.342;2024-01-07T05:28:49;3.78;;;1.50;;
75459;SDS011;64039;53.060;9.342;2024-01-07T05:31:18;3.78;;;1.23;;
75459;SDS011;64039;53.060;9.342;2024-01-07T05:33:44;2.80;;;1.30;;
75459;SDS011;64039;53.060;9.342;2024-01-07T05:36:10;2.78;;;1.20;;
75459;SDS011;64039;53.060;9.342;2024-01-07T05:38:36;3.13;;;1.35;;
75459;SDS011;64039;53.060;9.342;2024-01-07T05:41:02;3.47;;;1.48;;
75459;SDS011;64039;53.060;9.342;2024-01-07T05:43:27;4.43;;;1.63;;
75459;SDS011;64039;53.060;9.342;2024-01-07T05:45:53;3.08;;;1.38;;
75459;SDS011;64039;53.060;9.342;2024-01-07T05:48:20;2.30;;;1.20;;
75459;SDS011;64039;53.060;9.342;2024-01-07T05:50:47;3.20;;;1.20;;
75459;SDS011;64039;53.060;9.342;2024-01-07T05:53:12;1.67;;;1.10;;
75459;SDS011;64039;53.060;9.342;2024-01-07T05:55:38;4.13;;;1.42;;
75459;SDS011;64039;53.060;9.342;2024-01-07T05:58:04;4.53;;;1.27;;
75459;SDS011;64039;53.060;9.342;2024-01-07T06:00:29;3.47;;;1.25;;
75459;SDS011;64039;53.060;9.342;2024-01-07T06:02:55;4.10;;;1.17;;
75459;SDS011;64039;53.060;9.342;2024-01-07T06:05:21;3.17;;;1.23;;
75459;SDS011;64039;53.060;9.342;2024-01-07T06:07:46;4.40;;;1.30;;
75459;SDS011;64039;53.060;9.342;2024-01-07T06:10:12;1.80;;;1.00;;
75459;SDS011;64039;53.060;9.342;2024-01-07T06:12:37;3.35;;;1.30;;
75459;SDS011;64039;53.060;9.342;2024-01-07T06:15:03;2.10;;;1.00;;
75459;SDS011;64039;53.060;9.342;2024-01-07T06:17:30;2.60;;;1.25;;
75459;SDS011;64039;53.060;9.342;2024-01-07T06:19:56;4.63;;;1.52;;
75459;SDS011;64039;53.060;9.342;2024-01-07T06:22:21;2.00;;;0.90;;
75459;SDS011;64039;53.060;9.342;2024-01-07T06:24:46;2.22;;;1.27;;
75459;SDS011;64039;53.060;9.342;2024-01-07T06:27:12;2.47;;;1.10;;
75459;SDS011;64039;53.060;9.342;2024-01-07T06:29:38;2.20;;;1.10;;
75459;SDS011;64039;53.060;9.342;2024-01-07T06:32:04;2.17;;;1.13;;
75459;SDS011;64039;53.060;9.342;2024-01-07T06:34:29;3.03;;;1.25;;
75459;SDS011;64039;53.060;9.342;2024-01-07T06:36:55;3.92;;;1.17;;
75459;SDS011;64039;53.060;9.342;2024-01-07T06:39:20;2.65;;;1.20;;
75459;SDS011;64039;53.060;9.342;2024-01-07T06:41:47;2.38;;;1.20;;
75459;SDS011;64039;53.060;9.342;2024-01-07T06:44:13;4.25;;;1.42;;
75459;SDS011;64039;53.060;9.342;2024-01-07T06:46:38;3.35;;;1.40;;
75459;SDS011;64039;53.060;9.342;2024-01-07T06:49:04;4.85;;;1.80;;
75459;SDS011;64039;53.060;9.342;2024-01-07T06:51:29;2.47;;;1.40;;
75459;SDS011;64039;53.060;9.342;2024-01-07T06:53:55;2.60;;;1.25;;
75459;SDS011;64039;53.060;9.342;2024-01-07T06:56:20;3.45;;;1.33;;
75459;SDS011;64039;53.060;9.342;2024-01-07T06:58:45;1.60;;;1.02;;
75459;SDS011;64039;53.060;9.342;2024-01-07T07:01:11;3.22;;;1.40;;
75459;SDS011;64039;53.060;9.342;2024-01-07T07:03:36;3.65;;;1.38;;
75459;SDS011;64039;53.060;9.342;2024-01-07T07:06:02;2.45;;;1.38;;
75459;SDS011;64039;53.060;9.342;2024-01-07T07:08:27;4.00;;;1.40;;
75459;SDS011;64039;53.060;9.342;2024-01-07T07:10:53;2.15;;;1.20;;
75459;SDS011;64039;53.060;9.342;2024-01-07T07:13:18;1.88;;;1.20;;
75459;SDS011;64039;53.060;9.342;2024-01-07T07:15:44;2.05;;;1.20;;
75459;SDS011;64039;53.060;9.342;2024-01-07T07:18:09;2.58;;;1.08;;
75459;SDS011;64039;53.060;9.342;2024-01-07T07:20:35;3.95;;;1.00;;
75459;SDS011;64039;53.060;9.342;2024-01-07T07:23:00;2.65;;;1.40;;
75459;SDS011;64039;53.060;9.342;2024-01-07T07:25:26;3.63;;;1.55;;
75459;SDS011;64039;53.060;9.342;2024-01-07T07:27:51;2.55;;;1.10;;
75459;SDS011;64039;53.060;9.342;2024-01-07T07:30:17;3.67;;;1.27;;
75459;SDS011;64039;53.060;9.342;2024-01-07T07:32:43;3.38;;;1.35;;
75459;SDS011;64039;53.060;9.342;2024-01-07T07:35:09;2.78;;;1.30;;
75459;SDS011;64039;53.060;9.342;2024-01-07T07:37:34;4.07;;;1.10;;
75459;SDS011;64039;53.060;9.342;2024-01-07T07:40:00;1.48;;;1.00;;
75459;SDS011;64039;53.060;9.342;2024-01-07T07:42:25;2.45;;;1.25;;
75459;SDS011;64039;53.060;9.342;2024-01-07T07:44:51;5.10;;;1.42;;
75459;SDS011;64039;53.060;9.342;2024-01-07T07:47:16;2.95;;;1.10;;
75459;SDS011;64039;53.060;9.342;2024-01-07T07:49:42;4.38;;;1.20;;
75459;SDS011;64039;53.060;9.342;2024-01-07T07:52:07;3.20;;;1.38;;
75459;SDS011;64039;53.060;9.342;2024-01-07T07:54:38;1.92;;;1.00;;
75459;SDS011;64039;53.060;9.342;2024-01-07T07:57:04;3.03;;;1.10;;
75459;SDS011;64039;53.060;9.342;2024-01-07T07:59:29;2.92;;;1.10;;
75459;SDS011;64039;53.060;9.342;2024-01-07T08:01:55;3.30;;;1.10;;
75459;SDS011;64039;53.060;9.342;2024-01-07T08:04:20;4.00;;;1.38;;
75459;SDS011;64039;53.060;9.342;2024-01-07T08:06:46;2.83;;;1.38;;
75459;SDS011;64039;53.060;9.342;2024-01-07T08:09:11;2.97;;;1.10;;
75459;SDS011;64039;53.060;9.342;2024-01-07T08:11:37;1.77;;;1.15;;
75459;SDS011;64039;53.060;9.342;2024-01-07T08:14:02;5.68;;;1.60;;
75459;SDS011;64039;53.060;9.342;2024-01-07T08:16:27;3.40;;;1.15;;
75459;SDS011;64039;53.060;9.342;2024-01-07T08:18:53;6.90;;;2.40;;
75459;SDS011;64039;53.060;9.342;2024-01-07T08:21:21;3.05;;;1.20;;
75459;SDS011;64039;53.060;9.342;2024-01-07T08:23:48;3.92;;;1.20;;
75459;SDS011;64039;53.060;9.342;2024-01-07T08:26:18;2.80;;;1.25;;
75459;SDS011;64039;53.060;9.342;2024-01-07T08:28:46;3.13;;;1.10;;
75459;SDS011;64039;53.060;9.342;2024-01-07T08:31:12;3.03;;;1.10;;
75459;SDS011;64039;53.060;9.342;2024-01-07T08:33:37;4.05;;;1.00;;
75459;SDS011;64039;53.060;9.342;2024-01-07T08:36:03;3.58;;;1.23;;
75459;SDS011;64039;53.060;9.342;2024-01-07T08:38:29;3.03;;;1.48;;
75459;SDS011;64039;53.060;9.342;2024-01-07T08:40:55;2.53;;;1.30;;
75459;SDS011;64039;53.060;9.342;2024-01-07T08:43:20;2.38;;;1.35;;
75459;SDS011;64039;53.060;9.342;2024-01-07T08:45:46;1.88;;;1.13;;
75459;SDS011;64039;53.060;9.342;2024-01-07T08:48:11;2.42;;;1.23;;
75459;SDS011;64039;53.060;9.342;2024-01-07T08:50:37;2.42;;;1.00;;
75459;SDS011;64039;53.060;9.342;2024-01-07T08:53:03;3.58;;;1.17;;
75459;SDS011;64039;53.060;9.342;2024-01-07T08:55:28;2.40;;;1.25;;
75459;SDS011;64039;53.060;9.342;2024-01-07T08:57:54;5.90;;;1.33;;
75459;SDS011;64039;53.060;9.342;2024-01-07T09:00:19;2.38;;;1.20;;
75459;SDS011;64039;53.060;9.342;2024-01-07T09:02:45;2.72;;;1.20;;
75459;SDS011;64039;53.060;9.342;2024-01-07T09:05:10;6.10;;;2.00;;
75459;SDS011;64039;53.060;9.342;2024-01-07T09:07:37;3.03;;;1.30;;
75459;SDS011;64039;53.060;9.342;2024-01-07T09:10:03;2.55;;;1.25;;
75459;SDS011;64039;53.060;9.342;2024-01-07T09:12:33;4.50;;;1.20;;
75459;SDS011;64039;53.060;9.342;2024-01-07T09:14:59;5.30;;;1.50;;
75459;SDS011;64039;53.060;9.342;2024-01-07T09:17:24;4.40;;;1.45;;
75459;SDS011;64039;53.060;9.342;2024-01-07T09:19:50;3.75;;;1.40;;
75459;SDS011;64039;53.060;9.342;2024-01-07T09:22:15;2.78;;;1.40;;
75459;SDS011;64039;53.060;9.342;2024-01-07T09:24:40;2.30;;;1.35;;
75459;SDS011;64039;53.060;9.342;2024-01-07T09:27:06;3.80;;;1.35;;
75459;SDS011;64039;53.060;9.342;2024-01-07T09:29:31;2.55;;;1.20;;
75459;SDS011;64039;53.060;9.342;2024-01-07T09:31:57;2.45;;;1.08;;
75459;SDS011;64039;53.060;9.342;2024-01-07T09:34:22;1.98;;;1.30;;
75459;SDS011;64039;53.060;9.342;2024-01-07T09:36:48;3.28;;;1.33;;
75459;SDS011;64039;53.060;9.342;2024-01-07T09:39:13;1.95;;;1.02;;
75459;SDS011;64039;53.060;9.342;2024-01-07T09:41:39;2.60;;;1.15;;
75459;SDS011;64039;53.060;9.342;2024-01-07T09:44:04;3.58;;;1.20;;
75459;SDS011;64039;53.060;9.342;2024-01-07T09:46:33;3.83;;;1.48;;
75459;SDS011;64039;53.060;9.342;2024-01-07T09:49:02;3.33;;;1.38;;
75459;SDS011;64039;53.060;9.342;2024-01-07T09:51:28;2.90;;;1.42;;
75459;SDS011;64039;53.060;9.342;2024-01-07T09:53:58;4.78;;;1.40;;
75459;SDS011;64039;53.060;9.342;2024-01-07T09:56:29;4.80;;;1.92;;
75459;SDS011;64039;53.060;9.342;2024-01-07T09:59:03;4.38;;;1.83;;
75459;SDS011;64039;53.060;9.342;2024-01-07T10:01:29;3.92;;;1.92;;
75459;SDS011;64039;53.060;9.342;2024-01-07T10:03:56;6.32;;;2.30;;
75459;SDS011;64039;53.060;9.342;2024-01-07T10:06:22;4.88;;;1.92;;
75459;SDS011;64039;53.060;9.342;2024-01-07T10:08:48;4.75;;;2.13;;
75459;SDS011;64039;53.060;9.342;2024-01-07T10:11:14;5.55;;;2.50;;
75459;SDS011;64039;53.060;9.342;2024-01-07T10:13:39;5.80;;;2.03;;
75459;SDS011;64039;53.060;9.342;2024-01-07T10:16:07;5.43;;;2.60;;
75459;SDS011;64039;53.060;9.342;2024-01-07T10:18:33;5.45;;;2.65;;
75459;SDS011;64039;53.060;9.342;2024-01-07T10:21:02;5.07;;;2.70;;
75459;SDS011;64039;53.060;9.342;2024-01-07T10:23:29;6.88;;;3.05;;
75459;SDS011;64039;53.060;9.342;2024-01-07T10:25:54;6.68;;;2.70;;
75459;SDS011;64039;53.060;9.342;2024-01-07T10:28:22;6.43;;;3.10;;
75459;SDS011;64039;53.060;9.342;2024-01-07T10:30:50;5.88;;;3.10;;
75459;SDS011;64039;53.060;9.342;2024-01-07T10:33:19;5.80;;;3.15;;
75459;SDS011;64039;53.060;9.342;2024-01-07T10:35:48;8.60;;;3.58;;
75459;SDS011;64039;53.060;9.342;2024-01-07T10:38:22;5.07;;;3.05;;
75459;SDS011;64039;53.060;9.342;2024-01-07T10:40:48;8.00;;;3.25;;
75459;SDS011;64039;53.060;9.342;2024-01-07T10:43:17;5.20;;;2.97;;
75459;SDS011;64039;53.060;9.342;2024-01-07T10:45:44;6.80;;;3.20;;
75459;SDS011;64039;53.060;9.342;2024-01-07T10:48:18;9.60;;;4.10;;
75459;SDS011;64039;53.060;9.342;2024-01-07T10:50:45;7.07;;;3.42;;
75459;SDS011;64039;53.060;9.342;2024-01-07T10:53:17;6.90;;;2.97;;
75459;SDS011;64039;53.060;9.342;2024-01-07T10:55:48;6.47;;;3.20;;
75459;SDS011;64039;53.060;9.342;2024-01-07T10:58:20;5.25;;;2.90;;
75459;SDS011;64039;53.060;9.342;2024-01-07T11:00:47;9.70;;;3.22;;
75459;SDS011;64039;53.060;9.342;2024-01-07T11:03:14;6.60;;;3.22;;
75459;SDS011;64039;53.060;9.342;2024-01-07T11:06:06;6.22;;;2.95;;
75459;SDS011;64039;53.060;9.342;2024-01-07T11:08:45;6.55;;;3.17;;
75459;SDS011;64039;53.060;9.342;2024-01-07T11:11:21;5.50;;;2.70;;
75459;SDS011;64039;53.060;9.342;2024-01-07T11:13:52;7.13;;;3.70;;
75459;SDS011;64039;53.060;9.342;2024-01-07T11:19:06;6.13;;;3.53;;
75459;SDS011;64039;53.060;9.342;2024-01-07T11:21:32;4.25;;;2.63;;
75459;SDS011;64039;53.060;9.342;2024-01-07T11:23:58;9.05;;;3.13;;
75459;SDS011;64039;53.060;9.342;2024-01-07T11:26:23;8.10;;;3.35;;
75459;SDS011;64039;53.060;9.342;2024-01-07T11:28:49;5.68;;;3.00;;
75459;SDS011;64039;53.060;9.342;2024-01-07T11:31:42;8.57;;;3.20;;
75459;SDS011;64039;53.060;9.342;2024-01-07T11:34:10;8.55;;;3.30;;
75459;SDS011;64039;53.060;9.342;2024-01-07T11:36:36;5.35;;;2.65;;
75459;SDS011;64039;53.060;9.342;2024-01-07T11:39:02;7.60;;;2.85;;
75459;SDS011;64039;53.060;9.342;2024-01-07T11:41:32;7.45;;;3.03;;
75459;SDS011;64039;53.060;9.342;2024-01-07T11:43:59;6.43;;;2.50;;
75459;SDS011;64039;53.060;9.342;2024-01-07T11:46:26;8.02;;;2.65;;
75459;SDS011;64039;53.060;9.342;2024-01-07T11:48:53;5.63;;;2.60;;
75459;SDS011;64039;53.060;9.342;2024-01-07T11:51:27;5.50;;;2.78;;
75459;SDS011;64039;53.060;9.342;2024-01-07T11:53:58;8.00;;;3.00;;
75459;SDS011;64039;53.060;9.342;2024-01-07T11:56:25;4.78;;;2.40;;
75459;SDS011;64039;53.060;9.342;2024-01-07T11:58:51;6.95;;;2.40;;
75459;SDS011;64039;53.060;9.342;2024-01-07T12:01:17;3.58;;;2.00;;
75459;SDS011;64039;53.060;9.342;2024-01-07T12:03:44;5.03;;;2.60;;
75459;SDS011;64039;53.060;9.342;2024-01-07T12:06:10;4.55;;;2.25;;
75459;SDS011;64039;53.060;9.342;2024-01-07T12:08:42;7.22;;;2.50;;
75459;SDS011;64039;53.060;9.342;2024-01-07T12:11:12;7.78;;;2.17;;
75459;SDS011;64039;53.060;9.342;2024-01-07T12:13:38;5.20;;;2.78;;
75459;SDS011;64039;53.060;9.342;2024-01-07T12:16:05;5.45;;;2.65;;
75459;SDS011;64039;53.060;9.342;2024-01-07T12:18:31;5.43;;;2.47;;
75459;SDS011;64039;53.060;9.342;2024-01-07T12:20:57;5.03;;;2.60;;
75459;SDS011;64039;53.060;9.342;2024-01-07T12:23:24;6.05;;;2.30;;
75459;SDS011;64039;53.060;9.342;2024-01-07T12:25:51;7.07;;;2.63;;
75459;SDS011;64039;53.060;9.342;2024-01-07T12:28:17;3.97;;;2.20;;
75459;SDS011;64039;53.060;9.342;2024-01-07T12:30:44;4.68;;;2.28;;
75459;SDS011;64039;53.060;9.342;2024-01-07T12:33:09;6.10;;;2.45;;
75459;SDS011;64039;53.060;9.342;2024-01-07T12:35:35;5.88;;;2.47;;
75459;SDS011;64039;53.060;9.342;2024-01-07T12:38:01;6.32;;;2.40;;
75459;SDS011;64039;53.060;9.342;2024-01-07T12:40:27;3.55;;;2.15;;
75459;SDS011;64039;53.060;9.342;2024-01-07T12:42:52;7.25;;;2.45;;
75459;SDS011;64039;53.060;9.342;2024-01-07T12:45:18;5.85;;;2.20;;
75459;SDS011;64039;53.060;9.342;2024-01-07T12:47:43;4.07;;;2.38;;
75459;SDS011;64039;53.060;9.342;2024-01-07T12:50:09;7.38;;;2.38;;
75459;SDS011;64039;53.060;9.342;2024-01-07T12:52:38;7.82;;;2.35;;
75459;SDS011;64039;53.060;9.342;2024-01-07T12:55:04;4.57;;;2.20;;
75459;SDS011;64039;53.060;9.342;2024-01-07T12:57:31;3.67;;;2.28;;
75459;SDS011;64039;53.060;9.342;2024-01-07T12:59:56;7.07;;;2.53;;
75459;SDS011;64039;53.060;9.342;2024-01-07T13:02:22;3.70;;;2.00;;
75459;SDS011;64039;53.060;9.342;2024-01-07T13:04:48;3.58;;;2.00;;
75459;SDS011;64039;53.060;9.342;2024-01-07T13:07:14;4.50;;;2.55;;
75459;SDS011;64039;53.060;9.342;2024-01-07T13:09:40;5.30;;;2.10;;
75459;SDS011;64039;53.060;9.342;2024-01-07T13:12:05;3.47;;;2.10;;
75459;SDS011;64039;53.060;9.342;2024-01-07T13:14:30;3.85;;;2.25;;
75459;SDS011;64039;53.060;9.342;2024-01-07T13:16:56;4.38;;;2.30;;
75459;SDS011;64039;53.060;9.342;2024-01-07T13:19:21;5.35;;;2.22;;
75459;SDS011;64039;53.060;9.342;2024-01-07T13:21:47;5.47;;;2.83;;
75459;SDS011;64039;53.060;9.342;2024-01-07T13:24:12;4.43;;;2.30;;
75459;SDS011;64039;53.060;9.342;2024-01-07T13:26:38;6.13;;;2.40;;
75459;SDS011;64039;53.060;9.342;2024-01-07T13:29:03;3.35;;;1.88;;
75459;SDS011;64039;53.060;9.342;2024-01-07T13:31:29;5.53;;;2.10;;
75459;SDS011;64039;53.060;9.342;2024-01-07T13:33:55;5.72;;;2.10;;
75459;SDS011;64039;53.060;9.342;2024-01-07T13:36:20;4.03;;;1.92;;
75459;SDS011;64039;53.060;9.342;2024-01-07T13:38:45;5.25;;;2.20;;
75459;SDS011;64039;53.060;9.342;2024-01-07T13:41:15;3.53;;;1.83;;
75459;SDS011;64039;53.060;9.342;2024-01-07T13:43:41;6.75;;;1.92;;
75459;SDS011;64039;53.060;9.342;2024-01-07T13:46:07;5.00;;;2.15;;
75459;SDS011;64039;53.060;9.342;2024-01-07T13:48:34;3.10;;;2.08;;
75459;SDS011;64039;53.060;9.342;2024-01-07T13:51:00;7.47;;;2.17;;
75459;SDS011;64039;53.060;9.342;2024-01-07T13:53:25;4.85;;;2.30;;
75459;SDS011;64039;53.060;9.342;2024-01-07T13:55:52;4.10;;;2.65;;
75459;SDS011;64039;53.060;9.342;2024-01-07T13:58:17;4.63;;;2.00;;
75459;SDS011;64039;53.060;9.342;2024-01-07T14:00:45;4.82;;;2.17;;
75459;SDS011;64039;53.060;9.342;2024-01-07T14:03:10;5.13;;;2.45;;
75459;SDS011;64039;53.060;9.342;2024-01-07T14:05:35;3.88;;;2.20;;
75459;SDS011;64039;53.060;9.342;2024-01-07T14:08:01;5.45;;;2.50;;
75459;SDS011;64039;53.060;9.342;2024-01-07T14:10:27;4.18;;;2.00;;
75459;SDS011;64039;53.060;9.342;2024-01-07T14:12:52;4.93;;;2.13;;
75459;SDS011;64039;53.060;9.342;2024-01-07T14:15:17;3.88;;;2.13;;
75459;SDS011;64039;53.060;9.342;2024-01-07T14:17:44;3.67;;;2.10;;
75459;SDS011;64039;53.060;9.342;2024-01-07T14:20:09;3.90;;;2.00;;
75459;SDS011;64039;53.060;9.342;2024-01-07T14:22:35;4.10;;;2.10;;
75459;SDS011;64039;53.060;9.342;2024-01-07T14:25:02;5.15;;;1.92;;
75459;SDS011;64039;53.060;9.342;2024-01-07T14:27:28;3.70;;;2.10;;
75459;SDS011;64039;53.060;9.342;2024-01-07T14:29:54;4.18;;;2.22;;
75459;SDS011;64039;53.060;9.342;2024-01-07T14:32:21;5.68;;;2.20;;
75459;SDS011;64039;53.060;9.342;2024-01-07T14:34:46;7.22;;;2.85;;
75459;SDS011;64039;53.060;9.342;2024-01-07T14:37:14;7.68;;;3.03;;
75459;SDS011;64039;53.060;9.342;2024-01-07T14:39:40;5.05;;;2.10;;
75459;SDS011;64039;53.060;9.342;2024-01-07T14:42:05;4.90;;;2.10;;
75459;SDS011;64039;53.060;9.342;2024-01-07T14:44:34;7.55;;;2.20;;